createdAt,value
2023-03-06T00:01:28.918Z,47.68
2023-03-06T00:03:33.721Z,47.53
2023-03-06T00:05:38.063Z,47.60
2023-03-06T00:07:42.133Z,47.81
2023-03-06T00:09:47.533Z,47.68
2023-03-06T00:11:51.602Z,47.59
2023-03-06T00:13:55.645Z,47.74
2023-03-06T00:16:00.540Z,47.87
2023-03-06T00:18:05.220Z,47.81
2023-03-06T00:20:11.068Z,47.75
2023-03-06T00:22:15.747Z,47.82
2023-03-06T00:24:20.182Z,47.64
2023-03-06T00:26:25.580Z,47.89
2023-03-06T00:28:30.851Z,48.00
2023-03-06T00:30:34.980Z,47.79
2023-03-06T00:32:39.371Z,47.91
2023-03-06T00:34:43.451Z,48.01
2023-03-06T00:36:47.861Z,47.83
2023-03-06T00:38:51.931Z,48.05
2023-03-06T00:40:56.023Z,48.07
2023-03-06T00:43:01.430Z,47.99
2023-03-06T00:45:06.445Z,47.81
2023-03-06T00:47:11.096Z,48.15
2023-03-06T00:49:15.223Z,47.97
2023-03-06T00:51:19.700Z,48.00
2023-03-06T00:53:23.762Z,48.16
2023-03-06T00:55:29.292Z,48.12
2023-03-06T00:57:33.364Z,48.05
2023-03-06T00:59:38.772Z,48.18
2023-03-06T01:01:42.887Z,48.19
2023-03-06T01:03:46.994Z,48.44
2023-03-06T01:05:51.145Z,48.25
2023-03-06T01:07:55.239Z,48.17
2023-03-06T01:09:59.336Z,48.06
2023-03-06T01:12:03.402Z,48.16
2023-03-06T01:14:07.532Z,48.16
2023-03-06T01:16:14.249Z,48.29
2023-03-06T01:18:18.358Z,48.26
2023-03-06T01:20:22.427Z,48.03
2023-03-06T01:22:26.735Z,48.25
2023-03-06T01:24:30.793Z,48.44
2023-03-06T01:26:34.918Z,48.29
2023-03-06T01:28:39.118Z,48.44
2023-03-06T01:30:43.208Z,48.08
2023-03-06T01:32:49.094Z,48.52
2023-03-06T01:34:53.268Z,48.57
2023-03-06T01:36:57.342Z,48.46
2023-03-06T01:39:01.559Z,48.55
2023-03-06T01:41:06.199Z,48.52
2023-03-06T01:43:25.408Z,48.31
2023-03-06T01:46:06.680Z,48.56
2023-03-06T01:48:12.131Z,48.44
2023-03-06T01:50:16.378Z,48.63
2023-03-06T01:52:22.308Z,48.56
2023-03-06T01:54:27.701Z,48.70
2023-03-06T01:56:32.164Z,48.70
2023-03-06T01:58:36.282Z,48.70
2023-03-06T02:00:40.462Z,48.56
2023-03-06T02:02:46.693Z,48.74
2023-03-06T02:04:52.120Z,48.63
2023-03-06T02:06:56.392Z,48.77
2023-03-06T02:09:00.440Z,48.66
2023-03-06T02:11:11.537Z,48.67
2023-03-06T02:13:15.578Z,48.60
2023-03-06T02:15:20.767Z,48.71
2023-03-06T02:17:24.926Z,48.50
2023-03-06T02:19:34.265Z,48.74
2023-03-06T02:21:39.670Z,48.58
2023-03-06T02:23:50.300Z,48.49
2023-03-06T02:25:55.985Z,48.56
2023-03-06T02:28:01.529Z,48.56
2023-03-06T02:30:08.229Z,48.72
2023-03-06T02:32:12.357Z,48.72
2023-03-06T02:34:49.735Z,48.64
2023-03-06T02:36:54.875Z,48.68
2023-03-06T02:38:58.957Z,48.93
2023-03-06T02:41:06.237Z,48.65
2023-03-06T02:43:10.468Z,48.79
2023-03-06T02:45:14.632Z,48.69
2023-03-06T02:47:18.658Z,48.70
2023-03-06T02:49:24.379Z,48.65
2023-03-06T02:51:29.491Z,48.78
2023-03-06T02:53:33.929Z,48.87
2023-03-06T02:55:38.026Z,48.68
2023-03-06T02:57:43.538Z,48.75
2023-03-06T02:59:47.661Z,48.57
2023-03-06T03:01:53.087Z,48.65
2023-03-06T03:03:57.219Z,48.67
2023-03-06T03:06:01.524Z,48.76
2023-03-06T03:08:09.329Z,48.94
2023-03-06T03:10:13.769Z,48.93
2023-03-06T03:12:18.616Z,48.85
2023-03-06T03:14:25.247Z,48.93
2023-03-06T03:16:29.810Z,48.86
2023-03-06T03:18:36.043Z,48.98
2023-03-06T03:20:43.611Z,49.00
2023-03-06T03:22:49.458Z,48.93
2023-03-06T03:24:53.577Z,48.79
2023-03-06T03:26:58.362Z,48.92
2023-03-06T03:29:04.109Z,48.93
2023-03-06T03:31:10.848Z,49.00
2023-03-06T03:33:14.983Z,48.94
2023-03-06T03:35:20.169Z,48.85
2023-03-06T03:37:24.650Z,49.05
2023-03-06T03:39:29.211Z,48.81
2023-03-06T03:41:34.327Z,48.85
2023-03-06T03:43:41.513Z,48.93
2023-03-06T03:45:45.906Z,48.92
2023-03-06T03:47:51.368Z,49.05
2023-03-06T03:49:55.601Z,48.86
2023-03-06T03:52:00.434Z,48.89
2023-03-06T03:54:07.533Z,48.68
2023-03-06T03:56:16.919Z,48.94
2023-03-06T03:58:32.015Z,48.91
2023-03-06T04:00:36.109Z,49.00
2023-03-06T04:02:48.131Z,49.01
2023-03-06T04:05:02.035Z,49.15
2023-03-06T04:07:06.246Z,49.11
2023-03-06T04:09:10.598Z,49.20
2023-03-06T04:11:15.516Z,48.96
2023-03-06T04:13:20.873Z,49.11
2023-03-06T04:15:25.261Z,48.98
2023-03-06T04:17:29.939Z,49.15
2023-03-06T04:19:34.314Z,48.93
2023-03-06T04:21:40.305Z,48.90
2023-03-06T04:23:45.742Z,48.88
2023-03-06T04:25:49.985Z,49.10
2023-03-06T04:27:54.231Z,48.94
2023-03-06T04:29:58.739Z,49.13
2023-03-06T04:32:02.918Z,49.03
2023-03-06T04:34:07.180Z,49.08
2023-03-06T04:36:12.987Z,49.06
2023-03-06T04:38:18.447Z,48.88
2023-03-06T04:40:24.486Z,49.26
2023-03-06T04:42:28.867Z,49.06
2023-03-06T04:44:32.912Z,49.12
2023-03-06T04:46:37.014Z,48.93
2023-03-06T04:48:41.107Z,49.01
2023-03-06T04:50:45.226Z,49.04
2023-03-06T04:52:49.386Z,49.21
2023-03-06T04:54:55.193Z,48.97
2023-03-06T04:56:59.276Z,49.09
2023-03-06T04:59:04.125Z,48.97
2023-03-06T05:01:08.271Z,49.18
2023-03-06T05:03:12.371Z,48.84
2023-03-06T05:05:16.799Z,49.07
2023-03-06T05:07:20.898Z,48.88
2023-03-06T05:09:25.159Z,48.87
2023-03-06T05:11:30.557Z,48.89
2023-03-06T05:13:34.640Z,48.83
2023-03-06T05:15:40.611Z,49.00
2023-03-06T05:17:44.680Z,48.88
2023-03-06T05:19:48.754Z,48.82
2023-03-06T05:21:52.828Z,48.81
2023-03-06T05:23:56.922Z,48.93
2023-03-06T05:26:01.460Z,48.95
2023-03-06T05:28:06.876Z,49.00
2023-03-06T05:30:12.735Z,48.80
2023-03-06T05:32:17.669Z,48.95
2023-03-06T05:34:21.730Z,49.03
2023-03-06T05:36:25.862Z,48.93
2023-03-06T05:38:30.033Z,48.91
2023-03-06T05:40:34.116Z,48.86
2023-03-06T05:42:38.190Z,48.81
2023-03-06T05:44:43.673Z,48.65
2023-03-06T05:46:49.526Z,48.80
2023-03-06T05:48:55.289Z,48.68
2023-03-06T05:50:59.786Z,48.85
2023-03-06T05:53:03.892Z,48.85
2023-03-06T05:55:09.333Z,48.64
2023-03-06T05:57:13.410Z,48.71
2023-03-06T05:59:17.650Z,48.96
2023-03-06T06:01:25.216Z,49.04
2023-03-06T06:03:29.334Z,48.81
2023-03-06T06:05:33.423Z,48.97
2023-03-06T06:07:37.505Z,49.01
2023-03-06T06:09:43.325Z,48.81
2023-03-06T06:11:47.729Z,48.94
2023-03-06T06:13:51.808Z,48.80
2023-03-06T06:15:55.906Z,48.96
2023-03-06T06:18:01.325Z,48.78
2023-03-06T06:20:05.852Z,48.89
2023-03-06T06:22:10.250Z,48.91
2023-03-06T06:24:14.571Z,48.77
2023-03-06T06:26:18.623Z,48.83
2023-03-06T06:28:22.718Z,49.00
2023-03-06T06:30:26.777Z,48.70
2023-03-06T06:32:30.870Z,48.64
2023-03-06T06:34:36.295Z,48.30
2023-03-06T06:36:40.459Z,48.76
2023-03-06T06:38:44.572Z,49.27
2023-03-06T06:41:19.034Z,49.43
2023-03-06T06:43:12.678Z,49.18
2023-03-06T06:45:16.897Z,49.21
2023-03-06T06:47:23.466Z,49.65
2023-03-06T06:49:27.916Z,49.59
2023-03-06T06:51:33.787Z,49.56
2023-03-06T06:53:37.853Z,49.26
2023-03-06T06:55:42.868Z,49.28
2023-03-06T06:57:46.979Z,49.46
2023-03-06T06:59:53.435Z,49.45
2023-03-06T07:01:57.969Z,49.42
2023-03-06T07:04:02.198Z,49.27
2023-03-06T07:06:06.611Z,49.15
2023-03-06T07:08:12.033Z,49.42
2023-03-06T07:10:16.736Z,49.42
2023-03-06T07:12:20.830Z,49.25
2023-03-06T07:14:25.024Z,49.46
2023-03-06T07:16:29.120Z,49.34
2023-03-06T07:18:33.557Z,49.48
2023-03-06T07:20:38.162Z,49.23
2023-03-06T07:22:50.865Z,49.47
2023-03-06T07:24:57.218Z,49.69
2023-03-06T07:27:01.300Z,49.57
2023-03-06T07:29:05.708Z,49.63
2023-03-06T07:31:11.395Z,49.36
2023-03-06T07:33:15.673Z,49.63
2023-03-06T07:35:20.942Z,49.70
2023-03-06T07:37:25.160Z,49.54
2023-03-06T07:39:30.126Z,49.38
2023-03-06T07:41:35.606Z,49.59
2023-03-06T07:43:39.779Z,49.50
2023-03-06T07:45:46.746Z,49.27
2023-03-06T07:47:51.482Z,49.52
2023-03-06T07:49:56.351Z,45.28
2023-03-06T07:52:01.377Z,49.26
2023-03-06T07:54:05.575Z,48.72
2023-03-06T07:56:11.133Z,48.81
2023-03-06T07:58:16.579Z,49.14
2023-03-06T08:00:21.475Z,48.60
2023-03-06T08:02:25.891Z,48.65
2023-03-06T08:04:30.319Z,48.42
2023-03-06T08:06:34.450Z,48.41
2023-03-06T08:08:39.231Z,48.70
2023-03-06T08:10:47.797Z,48.40
2023-03-06T08:12:51.910Z,48.81
2023-03-06T08:14:57.402Z,48.77
2023-03-06T08:17:01.840Z,48.79
2023-03-06T08:19:05.896Z,48.83
2023-03-06T08:21:11.047Z,49.16
2023-03-06T08:23:15.124Z,49.13
2023-03-06T08:25:19.471Z,49.00
2023-03-06T08:27:23.959Z,49.28
2023-03-06T08:29:28.128Z,48.90
2023-03-06T08:31:34.566Z,47.38
2023-03-06T08:33:38.779Z,48.49
2023-03-06T08:35:42.873Z,48.71
2023-03-06T08:37:46.947Z,48.63
2023-03-06T08:39:51.000Z,48.80
2023-03-06T08:41:55.082Z,48.59
2023-03-06T08:43:59.135Z,48.81
2023-03-06T08:46:03.372Z,48.74
2023-03-06T08:48:08.862Z,48.83
2023-03-06T08:50:13.618Z,49.27
2023-03-06T08:52:17.698Z,48.94
2023-03-06T08:54:21.769Z,48.79
2023-03-06T08:56:26.726Z,49.22
2023-03-06T08:58:31.865Z,48.97
2023-03-06T09:00:35.989Z,49.09
2023-03-06T09:02:40.191Z,49.32
2023-03-06T09:04:45.996Z,49.03
2023-03-06T09:06:50.119Z,49.20
2023-03-06T09:08:54.376Z,49.20
2023-03-06T09:10:59.069Z,49.09
2023-03-06T09:13:03.192Z,49.27
2023-03-06T09:15:08.362Z,49.36
2023-03-06T09:17:12.439Z,49.34
2023-03-06T09:19:16.550Z,49.39
2023-03-06T09:21:22.084Z,49.38
2023-03-06T09:23:26.152Z,49.38
2023-03-06T09:25:30.307Z,49.14
2023-03-06T09:27:34.365Z,49.27
2023-03-06T09:29:38.441Z,49.00
2023-03-06T09:31:42.601Z,49.02
2023-03-06T09:33:47.249Z,49.21
2023-03-06T09:35:51.989Z,49.14
2023-03-06T09:37:57.451Z,49.22
2023-03-06T09:40:01.539Z,49.48
2023-03-06T09:42:06.925Z,49.54
2023-03-06T09:44:14.604Z,49.31
2023-03-06T09:46:22.402Z,49.38
2023-03-06T09:48:30.011Z,49.29
2023-03-06T09:50:37.031Z,49.50
2023-03-06T09:52:47.079Z,49.36
2023-03-06T09:54:54.318Z,49.25
2023-03-06T09:56:58.426Z,49.48
2023-03-06T09:59:12.576Z,49.44
2023-03-06T10:01:19.242Z,49.30
2023-03-06T10:03:25.790Z,49.31
2023-03-06T10:05:34.262Z,49.15
2023-03-06T10:07:44.670Z,49.35
2023-03-06T10:09:52.969Z,49.58
2023-03-06T10:11:58.446Z,49.44
2023-03-06T10:14:12.731Z,49.50
2023-03-06T10:16:27.179Z,49.41
2023-03-06T10:18:31.301Z,49.27
2023-03-06T10:20:37.874Z,49.47
2023-03-06T10:22:52.543Z,49.41
2023-03-06T10:25:11.078Z,49.45
2023-03-06T10:27:17.281Z,49.47
2023-03-06T10:29:32.604Z,49.49
2023-03-06T10:31:36.819Z,49.58
2023-03-06T10:33:48.117Z,49.53
2023-03-06T10:35:53.193Z,49.68
2023-03-06T10:38:10.886Z,49.73
2023-03-06T10:40:18.708Z,49.63
2023-03-06T10:42:26.630Z,49.68
2023-03-06T10:44:32.213Z,49.63
2023-03-06T10:46:39.214Z,49.65
2023-03-06T10:48:43.480Z,49.72
2023-03-06T10:50:47.541Z,49.76
2023-03-06T10:53:00.722Z,49.79
2023-03-06T10:55:24.737Z,49.81
2023-03-06T10:57:29.655Z,49.57
2023-03-06T10:59:33.735Z,49.73
2023-03-06T11:01:38.341Z,49.51
2023-03-06T11:03:42.436Z,49.69
2023-03-06T11:06:07.961Z,49.86
2023-03-06T11:08:20.082Z,49.93
2023-03-06T11:10:25.876Z,49.75
2023-03-06T11:12:33.818Z,49.70
2023-03-06T11:14:38.254Z,49.60
2023-03-06T11:16:42.317Z,49.68
2023-03-06T11:18:57.252Z,50.07
2023-03-06T11:21:01.587Z,49.80
2023-03-06T11:23:08.063Z,50.06
2023-03-06T11:25:12.551Z,49.82
2023-03-06T11:27:22.498Z,49.89
2023-03-06T11:29:36.912Z,49.83
2023-03-06T11:31:45.769Z,49.97
2023-03-06T11:33:52.050Z,49.79
2023-03-06T11:35:59.070Z,50.04
2023-03-06T11:38:06.967Z,50.17
2023-03-06T11:40:16.507Z,50.14
2023-03-06T11:42:23.050Z,50.12
2023-03-06T11:44:31.765Z,50.00
2023-03-06T11:46:37.992Z,49.97
2023-03-06T11:48:43.826Z,50.22
2023-03-06T11:50:49.104Z,50.00
2023-03-06T11:52:53.793Z,50.24
2023-03-06T11:54:58.160Z,50.26
2023-03-06T11:57:05.417Z,50.15
2023-03-06T11:59:36.167Z,49.94
2023-03-06T12:01:42.190Z,50.12
2023-03-06T12:04:01.750Z,50.07
2023-03-06T12:06:06.830Z,50.12
2023-03-06T12:08:18.626Z,50.29
2023-03-06T12:10:24.185Z,50.18
2023-03-06T12:12:59.065Z,50.47
2023-03-06T12:15:13.669Z,50.29
2023-03-06T12:17:25.735Z,50.28
2023-03-06T12:19:39.950Z,50.26
2023-03-06T12:21:48.620Z,50.38
2023-03-06T12:24:01.977Z,50.29
2023-03-06T12:26:10.733Z,50.27
2023-03-06T12:28:34.567Z,50.48
2023-03-06T12:30:54.573Z,50.62
2023-03-06T12:33:01.573Z,50.47
2023-03-06T12:35:15.003Z,50.58
2023-03-06T12:37:23.335Z,50.55
2023-03-06T12:39:30.759Z,50.60
2023-03-06T12:41:44.456Z,50.45
2023-03-06T12:44:22.044Z,50.64
2023-03-06T12:46:27.991Z,50.62
2023-03-06T12:48:34.861Z,50.60
2023-03-06T12:50:39.008Z,50.45
2023-03-06T12:52:43.085Z,50.69
2023-03-06T12:54:47.393Z,50.43
2023-03-06T12:56:51.482Z,50.61
2023-03-06T12:58:55.673Z,50.50
2023-03-06T13:01:05.949Z,50.60
2023-03-06T13:03:15.850Z,50.64
2023-03-06T13:05:48.388Z,50.54
2023-03-06T13:07:58.542Z,51.50
2023-03-06T13:10:10.226Z,51.46
2023-03-06T13:12:21.888Z,52.11
2023-03-06T13:14:27.227Z,51.89
2023-03-06T13:16:32.490Z,51.80
2023-03-06T13:19:01.701Z,52.02
2023-03-06T13:21:06.218Z,52.11
2023-03-06T13:23:47.473Z,52.47
2023-03-06T13:25:51.947Z,52.29
2023-03-06T13:28:03.706Z,52.02
2023-03-06T13:30:25.691Z,52.12
2023-03-06T13:32:33.792Z,51.91
2023-03-06T13:34:39.656Z,51.97
2023-03-06T13:36:43.732Z,52.08
2023-03-06T13:39:01.634Z,52.02
2023-03-06T13:41:33.734Z,52.07
2023-03-06T13:43:43.871Z,52.07
2023-03-06T13:45:49.705Z,51.81
2023-03-06T13:48:21.134Z,52.16
2023-03-06T13:50:31.992Z,51.99
2023-03-06T13:52:39.271Z,52.03
2023-03-06T13:54:48.334Z,52.10
2023-03-06T13:57:17.276Z,52.17
2023-03-06T13:59:40.634Z,52.58
2023-03-06T14:01:49.918Z,52.16
2023-03-06T14:04:34.445Z,51.73
2023-03-06T14:07:01.273Z,51.79
2023-03-06T14:09:06.117Z,52.11
2023-03-06T14:11:18.493Z,52.17
2023-03-06T14:13:26.536Z,52.15
2023-03-06T14:15:36.434Z,52.07
2023-03-06T14:17:40.748Z,51.97
2023-03-06T14:19:44.977Z,52.11
2023-03-06T14:21:50.275Z,52.00
2023-03-06T14:24:01.037Z,52.03
2023-03-06T14:26:09.362Z,51.88
2023-03-06T14:28:23.668Z,51.90
2023-03-06T14:30:27.770Z,52.17
2023-03-06T14:32:31.981Z,51.97
2023-03-06T14:34:38.152Z,51.76
2023-03-06T14:36:44.925Z,51.79
2023-03-06T14:38:51.006Z,51.75
2023-03-06T14:40:56.470Z,51.96
2023-03-06T14:43:16.462Z,51.85
2023-03-06T14:45:21.199Z,51.79
2023-03-06T14:47:27.853Z,51.89
2023-03-06T14:49:31.969Z,51.79
2023-03-06T14:51:37.995Z,52.18
2023-03-06T14:53:42.116Z,52.02
2023-03-06T14:55:50.095Z,51.81
2023-03-06T14:57:57.086Z,51.90
2023-03-06T15:00:01.141Z,51.76
2023-03-06T15:02:06.432Z,51.32
2023-03-06T15:04:17.202Z,51.53
2023-03-06T15:06:22.951Z,51.48
2023-03-06T15:08:28.379Z,51.61
2023-03-06T15:10:33.472Z,51.75
2023-03-06T15:12:38.535Z,51.60
2023-03-06T15:14:48.697Z,51.80
2023-03-06T15:16:52.822Z,51.81
2023-03-06T15:18:57.593Z,51.55
2023-03-06T15:21:16.100Z,51.73
2023-03-06T15:23:26.105Z,51.35
2023-03-06T15:25:30.495Z,51.59
2023-03-06T15:27:34.661Z,51.35
2023-03-06T15:29:40.563Z,51.38
2023-03-06T15:31:49.364Z,51.53
2023-03-06T15:34:24.891Z,51.46
2023-03-06T15:36:30.395Z,51.42
2023-03-06T15:38:36.436Z,51.49
2023-03-06T15:40:40.553Z,51.43
2023-03-06T15:42:44.609Z,51.48
2023-03-06T15:44:49.898Z,51.41
2023-03-06T15:47:06.614Z,51.45
2023-03-06T15:49:15.776Z,51.60
2023-03-06T15:51:19.937Z,51.55
2023-03-06T15:53:24.065Z,41.85
2023-03-06T15:55:28.114Z,49.82
2023-03-06T15:57:32.320Z,50.23
2023-03-06T15:59:41.530Z,49.65
2023-03-06T16:01:45.677Z,49.45
2023-03-06T16:03:51.515Z,49.44
2023-03-06T16:05:55.712Z,49.88
2023-03-06T16:07:59.824Z,49.92
2023-03-06T16:10:04.448Z,50.00
2023-03-06T16:12:11.229Z,49.92
2023-03-06T16:14:21.087Z,49.95
2023-03-06T16:16:29.669Z,49.83
2023-03-06T16:18:33.846Z,50.02
2023-03-06T16:20:40.045Z,50.36
2023-03-06T16:22:44.555Z,49.88
2023-03-06T16:24:49.355Z,50.22
2023-03-06T16:26:54.826Z,50.24
2023-03-06T16:28:58.930Z,50.15
2023-03-06T16:31:03.409Z,50.09
2023-03-06T16:33:07.662Z,50.14
2023-03-06T16:35:12.205Z,50.09
2023-03-06T16:37:17.703Z,50.20
2023-03-06T16:39:23.126Z,50.06
2023-03-06T16:41:27.516Z,50.30
2023-03-06T16:43:32.040Z,49.95
2023-03-06T16:45:37.814Z,49.86
2023-03-06T16:47:41.972Z,50.21
2023-03-06T16:49:46.099Z,50.17
2023-03-06T16:51:50.324Z,49.88
2023-03-06T16:53:55.737Z,50.09
2023-03-06T16:55:59.815Z,50.29
2023-03-06T16:58:04.153Z,50.13
2023-03-06T17:00:11.444Z,50.45
2023-03-06T17:02:15.527Z,50.15
2023-03-06T17:04:19.678Z,50.07
2023-03-06T17:06:23.917Z,50.10
2023-03-06T17:08:28.069Z,50.29
2023-03-06T17:10:33.528Z,50.13
2023-03-06T17:12:38.115Z,50.17
2023-03-06T17:14:42.226Z,50.20
2023-03-06T17:16:46.476Z,50.04
2023-03-06T17:18:50.625Z,50.43
2023-03-06T17:20:54.869Z,50.28
2023-03-06T17:22:58.944Z,50.22
2023-03-06T17:25:03.123Z,50.16
2023-03-06T17:27:08.601Z,50.31
2023-03-06T17:29:13.000Z,50.31
2023-03-06T17:31:17.878Z,50.39
2023-03-06T17:33:22.333Z,50.30
2023-03-06T17:35:26.415Z,50.31
2023-03-06T17:37:30.629Z,50.52
2023-03-06T17:39:35.259Z,50.18
2023-03-06T17:41:39.402Z,51.24
2023-03-06T17:43:44.819Z,49.82
2023-03-06T17:45:48.940Z,50.34
2023-03-06T17:47:55.316Z,51.07
2023-03-06T17:49:59.848Z,50.86
2023-03-06T17:52:05.684Z,50.92
2023-03-06T17:54:10.311Z,50.90
2023-03-06T17:56:14.881Z,50.90
2023-03-06T17:58:19.085Z,51.05
2023-03-06T18:00:25.385Z,51.20
2023-03-06T18:02:29.595Z,51.44
2023-03-06T18:04:33.685Z,51.05
2023-03-06T18:06:38.129Z,51.22
2023-03-06T18:08:42.178Z,51.47
2023-03-06T18:10:47.525Z,51.76
2023-03-06T18:12:51.753Z,51.58
2023-03-06T18:15:00.771Z,51.73
2023-03-06T18:17:06.274Z,52.36
2023-03-06T18:19:11.732Z,52.20
2023-03-06T18:21:16.648Z,52.62
2023-03-06T18:23:20.794Z,53.29
2023-03-06T18:25:24.949Z,54.33
2023-03-06T18:27:29.043Z,54.89
2023-03-06T18:29:33.148Z,56.03
2023-03-06T18:31:37.949Z,56.85
2023-03-06T18:33:43.468Z,57.46
2023-03-06T18:35:47.612Z,57.32
2023-03-06T18:37:52.088Z,58.86
2023-03-06T18:39:56.232Z,58.61
2023-03-06T18:42:00.396Z,58.66
2023-03-06T18:44:04.521Z,58.96
2023-03-06T18:46:08.743Z,58.88
2023-03-06T18:48:12.944Z,59.84
2023-03-06T18:50:18.625Z,59.45
2023-03-06T18:52:22.831Z,59.37
2023-03-06T18:54:28.496Z,59.49
2023-03-06T18:56:32.738Z,59.35
2023-03-06T18:58:36.947Z,59.34
2023-03-06T19:00:41.142Z,59.70
2023-03-06T19:02:45.209Z,59.24
2023-03-06T19:04:49.425Z,59.30
2023-03-06T19:06:55.493Z,59.14
2023-03-06T19:09:01.381Z,59.07
2023-03-06T19:11:06.465Z,58.94
2023-03-06T19:13:11.010Z,59.24
2023-03-06T19:15:15.461Z,58.76
2023-03-06T19:17:19.609Z,58.65
2023-03-06T19:19:26.789Z,58.03
2023-03-06T19:21:30.992Z,58.55
2023-03-06T19:23:36.203Z,58.58
2023-03-06T19:25:40.145Z,58.30
2023-03-06T19:27:45.929Z,58.64
2023-03-06T19:29:49.808Z,58.66
2023-03-06T19:31:56.895Z,58.55
2023-03-06T19:34:01.188Z,58.54
2023-03-06T19:36:05.924Z,58.44
2023-03-06T19:38:10.021Z,58.35
2023-03-06T19:40:16.601Z,58.55
2023-03-06T19:42:20.436Z,58.21
2023-03-06T19:44:24.254Z,58.20
2023-03-06T19:46:28.342Z,57.79
2023-03-06T19:48:32.337Z,58.30
2023-03-06T19:50:36.205Z,57.96
2023-03-06T19:52:40.139Z,58.34
2023-03-06T19:54:43.976Z,58.81
2023-03-06T19:56:49.169Z,58.71
2023-03-06T19:58:53.099Z,58.70
2023-03-06T20:00:57.007Z,58.61
2023-03-06T20:03:01.306Z,59.08
2023-03-06T20:05:09.246Z,58.75
2023-03-06T20:07:13.299Z,58.67
2023-03-06T20:09:17.095Z,58.97
2023-03-06T20:11:22.742Z,59.00
2023-03-06T20:13:27.932Z,58.60
2023-03-06T20:15:34.940Z,58.97
2023-03-06T20:17:40.386Z,58.82
2023-03-06T20:19:44.650Z,58.39
2023-03-06T20:21:48.724Z,58.60
2023-03-06T20:23:53.427Z,58.73
2023-03-06T20:25:57.259Z,58.63
2023-03-06T20:28:01.138Z,58.55
2023-03-06T20:30:08.234Z,58.50
2023-03-06T20:32:12.283Z,58.62
2023-03-06T20:34:16.143Z,58.53
2023-03-06T20:36:21.091Z,58.92
2023-03-06T20:38:24.923Z,58.60
2023-03-06T20:40:28.781Z,58.30
2023-03-06T20:42:32.622Z,58.73
2023-03-06T20:44:36.477Z,58.19
2023-03-06T20:46:41.818Z,58.42
2023-03-06T20:48:48.335Z,58.51
2023-03-06T20:51:01.226Z,58.07
2023-03-06T20:53:05.069Z,58.40
2023-03-06T20:55:10.090Z,58.13
2023-03-06T20:57:13.973Z,58.41
2023-03-06T20:59:17.792Z,58.02
2023-03-06T21:01:21.945Z,58.28
2023-03-06T21:03:27.154Z,58.36
2023-03-06T21:05:31.013Z,58.27
2023-03-06T21:07:34.970Z,58.42
2023-03-06T21:09:39.546Z,58.06
2023-03-06T21:11:43.421Z,58.02
2023-03-06T21:13:47.265Z,57.86
2023-03-06T21:15:51.099Z,58.25
2023-03-06T21:17:55.266Z,58.36
2023-03-06T21:20:00.600Z,58.14
2023-03-06T21:22:04.852Z,58.02
2023-03-06T21:24:08.943Z,57.90
2023-03-06T21:26:13.646Z,58.06
2023-03-06T21:28:17.535Z,57.86
2023-03-06T21:30:21.627Z,58.00
2023-03-06T21:32:25.846Z,58.30
2023-03-06T21:34:29.728Z,57.96
2023-03-06T21:36:34.951Z,58.05
2023-03-06T21:38:38.800Z,57.74
2023-03-06T21:40:43.148Z,58.36
2023-03-06T21:42:46.997Z,58.21
2023-03-06T21:44:50.833Z,58.15
2023-03-06T21:46:54.688Z,58.08
2023-03-06T21:48:58.745Z,57.97
2023-03-06T21:51:07.753Z,57.74
2023-03-06T21:53:12.958Z,57.38
2023-03-06T21:55:17.103Z,57.28
2023-03-06T21:57:21.005Z,57.56
2023-03-06T21:59:25.226Z,57.57
2023-03-06T22:01:29.771Z,34.83
2023-03-06T22:03:33.737Z,41.57
2023-03-06T22:05:37.588Z,44.81
2023-03-06T22:07:41.522Z,44.73
2023-03-06T22:09:47.127Z,46.51
2023-03-06T22:11:51.024Z,46.46
2023-03-06T22:13:54.953Z,46.80
2023-03-06T22:15:58.999Z,46.82
2023-03-06T22:18:02.907Z,47.28
2023-03-06T22:20:07.890Z,47.95
2023-03-06T22:22:11.896Z,48.37
2023-03-06T22:24:15.797Z,48.39
2023-03-06T22:26:21.107Z,48.24
2023-03-06T22:28:25.076Z,48.79
2023-03-06T22:30:29.335Z,48.69
2023-03-06T22:32:33.224Z,49.05
2023-03-06T22:34:37.165Z,48.76
2023-03-06T22:36:41.045Z,49.44
2023-03-06T22:38:46.127Z,49.01
2023-03-06T22:40:49.958Z,49.07
2023-03-06T22:42:55.159Z,48.83
2023-03-06T22:44:59.005Z,49.00
2023-03-06T22:47:02.872Z,49.28
2023-03-06T22:49:06.712Z,49.19
2023-03-06T22:51:12.404Z,49.28
2023-03-06T22:53:16.241Z,49.23
2023-03-06T22:55:20.148Z,49.17
2023-03-06T22:57:24.086Z,49.65
2023-03-06T22:59:29.472Z,49.50
2023-03-06T23:01:34.391Z,49.52
2023-03-06T23:03:38.630Z,49.72
2023-03-06T23:05:42.996Z,49.66
2023-03-06T23:07:46.849Z,50.04
2023-03-06T23:09:50.640Z,49.74
2023-03-06T23:12:13.108Z,50.08
2023-03-06T23:14:36.930Z,50.01
2023-03-06T23:16:59.364Z,49.88
2023-03-06T23:19:21.646Z,49.94
2023-03-06T23:21:43.984Z,50.09
2023-03-06T23:24:07.792Z,50.10
2023-03-06T23:26:13.340Z,50.44
2023-03-06T23:28:17.387Z,50.06
2023-03-06T23:30:23.085Z,49.60
2023-03-06T23:32:26.943Z,50.19
2023-03-06T23:34:30.792Z,50.17
2023-03-06T23:36:34.595Z,50.18
2023-03-06T23:38:38.525Z,50.25
2023-03-06T23:40:42.425Z,50.55
2023-03-06T23:42:46.567Z,50.25
2023-03-06T23:44:50.398Z,50.35
2023-03-06T23:46:55.558Z,50.51
2023-03-06T23:48:59.398Z,50.41
2023-03-06T23:51:07.249Z,50.56
2023-03-06T23:53:11.454Z,50.84
2023-03-06T23:55:15.300Z,50.65
2023-03-06T23:57:19.359Z,50.73
2023-03-06T23:59:23.286Z,50.83
